createdAt,value
2018-07-14T00:01:24.024Z,100110.59
2018-07-14T00:03:01.496Z,100015.34
2018-07-14T00:04:37.926Z,100005.96
2018-07-14T00:06:14.751Z,99939.94
2018-07-14T00:07:52.376Z,99945.25
2018-07-14T00:09:30.612Z,100013.50
2018-07-14T00:11:08.737Z,100034.75
2018-07-14T00:12:46.006Z,100127.70
2018-07-14T00:14:22.553Z,100142.77
2018-07-14T00:16:00.921Z,100205.32
2018-07-14T00:17:37.164Z,100295.92
2018-07-14T00:19:14.169Z,100327.95
2018-07-14T00:20:51.457Z,100117.53
2018-07-14T00:22:28.172Z,99962.34
2018-07-14T00:24:06.130Z,99953.84
2018-07-14T00:25:48.256Z,99985.81
2018-07-14T00:27:25.782Z,100020.84
2018-07-14T00:29:03.774Z,100058.62
2018-07-14T00:30:40.650Z,100152.23
2018-07-14T00:32:17.062Z,100179.73
2018-07-14T00:33:53.572Z,100238.03
2018-07-14T00:35:30.489Z,100165.20
2018-07-14T00:37:08.534Z,100137.27
2018-07-14T00:38:46.516Z,100035.23
2018-07-14T00:40:23.129Z,100113.78
2018-07-14T00:42:00.097Z,100152.94
2018-07-14T00:43:36.502Z,100220.82
2018-07-14T00:47:01.621Z,100228.34
2018-07-14T00:48:42.642Z,100148.48
2018-07-14T00:50:20.560Z,100141.89
2018-07-14T00:52:24.068Z,100239.56
2018-07-14T00:54:02.251Z,100309.77
2018-07-14T00:55:40.101Z,100125.00
2018-07-14T00:57:17.114Z,99993.36
2018-07-14T00:58:53.916Z,100065.48
2018-07-14T01:00:33.338Z,100053.52
2018-07-14T01:02:10.363Z,100041.25
2018-07-14T01:03:47.808Z,100146.83
2018-07-14T01:05:24.405Z,100128.67
2018-07-14T01:07:01.890Z,100064.34
2018-07-14T01:08:40.603Z,100001.87
2018-07-14T01:10:18.821Z,100033.32
2018-07-14T01:12:01.528Z,100023.20
2018-07-14T01:13:38.898Z,100025.81
2018-07-14T01:15:17.278Z,100097.38
2018-07-14T01:16:53.720Z,100155.03
2018-07-14T01:18:35.586Z,100173.72
2018-07-14T01:20:12.525Z,100202.62
2018-07-14T01:21:54.671Z,100086.25
2018-07-14T01:23:32.393Z,100031.80
2018-07-14T01:25:08.953Z,100002.53
2018-07-14T01:26:48.093Z,100104.62
2018-07-14T01:28:28.548Z,100018.19
2018-07-14T01:30:07.901Z,100013.73
2018-07-14T01:31:46.047Z,100131.59
2018-07-14T01:33:23.421Z,100148.18
2018-07-14T01:35:03.395Z,100206.77
2018-07-14T01:36:40.455Z,100253.40
2018-07-14T01:38:17.393Z,100155.73
2018-07-14T01:39:54.289Z,100117.19
2018-07-14T01:41:30.842Z,100165.50
2018-07-14T01:43:17.281Z,100139.80
2018-07-14T01:44:55.705Z,100071.97
2018-07-14T01:46:33.228Z,100142.98
2018-07-14T01:48:13.016Z,100244.22
2018-07-14T01:49:50.392Z,100229.56
2018-07-14T01:51:30.471Z,100250.12
2018-07-14T01:53:07.697Z,100236.76
2018-07-14T01:54:44.143Z,100217.69
2018-07-14T01:56:20.484Z,100309.19
2018-07-14T01:57:56.906Z,100360.35
2018-07-14T01:59:33.275Z,100282.58
2018-07-14T02:01:09.432Z,100307.56
2018-07-14T02:02:47.960Z,100294.59
2018-07-14T02:04:25.957Z,100266.75
2018-07-14T02:06:02.437Z,100291.97
2018-07-14T02:07:39.081Z,100198.25
2018-07-14T02:09:15.928Z,100196.98
2018-07-14T02:10:52.311Z,100143.28
2018-07-14T02:12:28.622Z,100167.73
2018-07-14T02:14:05.270Z,100196.50
2018-07-14T02:15:43.014Z,100143.28
2018-07-14T02:17:21.525Z,100103.00
2018-07-14T02:18:59.988Z,100045.80
2018-07-14T02:20:36.422Z,100026.78
2018-07-14T02:22:13.856Z,99992.50
2018-07-14T02:23:50.275Z,99972.23
2018-07-14T02:25:26.790Z,99960.66
2018-07-14T02:27:03.277Z,99944.33
2018-07-14T02:28:40.305Z,99931.47
2018-07-14T02:30:19.612Z,99874.75
2018-07-14T02:31:56.158Z,99925.31
2018-07-14T02:33:32.521Z,99877.06
2018-07-14T02:35:09.266Z,99863.73
2018-07-14T02:36:45.701Z,99818.59
2018-07-14T02:38:22.841Z,99848.31
2018-07-14T02:39:59.502Z,99847.83
2018-07-14T02:41:36.330Z,99808.39
2018-07-14T02:43:12.650Z,99862.52
2018-07-14T02:44:49.059Z,99866.08
2018-07-14T02:46:25.742Z,99882.95
2018-07-14T02:48:07.100Z,99896.25
2018-07-14T02:49:47.488Z,99856.80
2018-07-14T02:51:28.231Z,99888.84
2018-07-14T02:53:09.705Z,99831.05
2018-07-14T02:54:50.684Z,99809.45
2018-07-14T02:56:27.304Z,99809.93
2018-07-14T02:58:03.751Z,99809.06
2018-07-14T02:59:41.176Z,99763.84
2018-07-14T03:01:17.994Z,99750.26
2018-07-14T03:02:54.269Z,99737.45
2018-07-14T03:04:30.612Z,99735.71
2018-07-14T03:06:07.824Z,99773.69
2018-07-14T03:07:44.274Z,99873.50
2018-07-14T03:10:55.543Z,99924.93
2018-07-14T03:12:32.142Z,99928.89
2018-07-14T03:14:10.530Z,99927.94
2018-07-14T03:15:48.180Z,99923.58
2018-07-14T03:17:26.554Z,99943.06
2018-07-14T03:19:03.539Z,99926.77
2018-07-14T03:20:42.829Z,99881.61
2018-07-14T03:22:19.171Z,99842.73
2018-07-14T03:23:55.636Z,99844.87
2018-07-14T03:25:32.007Z,99892.23
2018-07-14T03:27:08.450Z,99924.27
2018-07-14T03:28:44.776Z,99964.52
2018-07-14T03:30:21.319Z,100000.14
2018-07-14T03:31:58.169Z,99958.80
2018-07-14T03:33:34.587Z,99909.67
2018-07-14T03:35:11.620Z,99886.53
2018-07-14T03:36:52.647Z,99949.16
2018-07-14T03:38:29.468Z,99983.61
2018-07-14T03:40:06.165Z,100003.32
2018-07-14T03:41:42.559Z,99982.44
2018-07-14T03:43:21.967Z,99977.16
2018-07-14T03:45:03.609Z,99953.61
2018-07-14T03:46:40.134Z,99949.25
2018-07-14T03:48:19.762Z,99943.46
2018-07-14T03:49:56.478Z,99906.70
2018-07-14T03:51:35.541Z,99893.50
2018-07-14T03:53:11.834Z,99879.30
2018-07-14T03:54:49.382Z,99901.00
2018-07-14T03:56:26.758Z,99934.78
2018-07-14T03:58:03.166Z,99926.28
2018-07-14T03:59:39.514Z,99935.17
2018-07-14T04:01:20.388Z,99931.20
2018-07-14T04:02:56.766Z,99970.79
2018-07-14T04:04:34.816Z,99995.95
2018-07-14T04:06:21.525Z,99946.77
2018-07-14T04:07:57.787Z,99912.77
2018-07-14T04:09:34.118Z,99949.95
2018-07-14T04:11:10.903Z,100006.41
2018-07-14T04:12:48.586Z,100057.39
2018-07-14T04:14:24.998Z,100103.20
2018-07-14T04:16:04.537Z,100209.27
2018-07-14T04:17:52.419Z,100232.75
2018-07-14T04:19:28.702Z,100305.16
2018-07-14T04:21:05.129Z,100424.00
2018-07-14T04:22:43.285Z,100471.13
2018-07-14T04:24:28.007Z,100524.92
2018-07-14T04:26:09.656Z,100537.82
2018-07-14T04:27:53.569Z,100570.05
2018-07-14T04:29:55.972Z,100656.34
2018-07-14T04:31:36.778Z,100774.84
2018-07-14T04:33:16.096Z,100909.44
2018-07-14T04:34:52.870Z,100970.14
2018-07-14T04:36:29.215Z,100946.92
2018-07-14T04:38:05.698Z,101002.36
2018-07-14T04:39:42.362Z,101081.68
2018-07-14T04:41:19.079Z,100981.88
2018-07-14T04:42:55.408Z,100938.54
2018-07-14T04:44:31.723Z,100836.11
2018-07-14T04:46:09.417Z,100858.89
2018-07-14T04:48:04.011Z,101050.59
2018-07-14T04:49:40.380Z,100945.80
2018-07-14T04:51:16.679Z,101122.54
2018-07-14T04:52:56.039Z,101212.33
2018-07-14T04:54:36.343Z,101340.57
2018-07-14T04:56:12.852Z,101499.84
2018-07-14T04:57:49.179Z,101491.68
2018-07-14T05:01:31.594Z,101648.47
2018-07-14T05:04:39.347Z,101922.92
2018-07-14T05:06:17.731Z,101959.20
2018-07-14T05:07:54.545Z,101950.33
2018-07-14T05:09:32.727Z,101996.56
2018-07-14T05:11:12.038Z,102036.50
2018-07-14T05:12:48.330Z,102037.77
2018-07-14T05:14:24.632Z,102061.20
2018-07-14T05:16:01.358Z,102102.48
2018-07-14T05:17:38.445Z,102181.62
2018-07-14T05:19:15.846Z,102241.34
2018-07-14T05:20:52.243Z,102098.95
2018-07-14T05:22:37.738Z,102102.15
2018-07-14T05:24:16.485Z,102156.98
2018-07-14T05:25:54.624Z,102276.39
2018-07-14T05:27:30.943Z,102434.36
2018-07-14T05:29:07.287Z,102572.91
2018-07-14T05:30:44.338Z,102647.22
2018-07-14T05:32:20.891Z,102595.01
2018-07-14T05:33:57.245Z,102516.73
2018-07-14T05:35:33.691Z,102460.47
2018-07-14T05:37:10.437Z,102441.08
2018-07-14T05:38:46.801Z,102511.40
2018-07-14T05:40:24.017Z,102522.56
2018-07-14T05:42:00.353Z,102432.58
2018-07-14T05:43:36.814Z,102244.27
2018-07-14T05:45:15.465Z,102180.97
2018-07-14T05:46:52.042Z,102067.75
2018-07-14T05:48:28.364Z,102160.25
2018-07-14T05:50:08.306Z,102339.53
2018-07-14T05:51:45.263Z,102528.03
2018-07-14T05:53:23.147Z,102700.01
2018-07-14T05:54:59.449Z,102796.45
2018-07-14T05:56:36.283Z,102911.04
2018-07-14T05:58:15.451Z,102930.92
2018-07-14T05:59:52.755Z,102930.85
2018-07-14T06:01:29.160Z,102922.77
2018-07-14T06:03:06.027Z,102925.51
2018-07-14T06:04:43.171Z,102975.13
2018-07-14T06:06:21.854Z,103039.67
2018-07-14T06:07:58.202Z,103108.32
2018-07-14T06:09:34.937Z,103153.50
2018-07-14T06:11:11.838Z,103190.93
2018-07-14T06:12:52.350Z,103199.98
2018-07-14T06:14:29.463Z,103153.41
2018-07-14T06:16:06.502Z,103114.09
2018-07-14T06:17:42.804Z,103016.63
2018-07-14T06:19:19.665Z,102991.30
2018-07-14T06:20:57.534Z,102960.66
2018-07-14T06:22:34.727Z,102795.15
2018-07-14T06:24:11.070Z,102731.66
2018-07-14T06:25:47.812Z,102724.00
2018-07-14T06:27:25.002Z,102694.61
2018-07-14T06:29:01.906Z,102631.59
2018-07-14T06:30:38.272Z,102638.29
2018-07-14T06:32:14.547Z,102621.30
2018-07-14T06:33:53.677Z,102771.25
2018-07-14T06:35:31.755Z,102846.52
2018-07-14T06:37:19.705Z,102925.39
2018-07-14T06:38:59.046Z,102941.64
2018-07-14T06:40:37.993Z,102976.00
2018-07-14T06:43:52.933Z,102695.50
2018-07-14T06:45:30.768Z,102670.30
2018-07-14T06:47:07.615Z,102529.33
2018-07-14T06:48:44.310Z,102460.95
2018-07-14T06:50:32.181Z,102422.72
2018-07-14T06:52:08.893Z,102620.19
2018-07-14T06:53:52.156Z,102702.67
2018-07-14T06:55:29.537Z,102755.39
2018-07-14T06:57:05.914Z,102799.50
2018-07-14T06:58:43.035Z,102664.36
2018-07-14T07:00:25.527Z,102821.56
2018-07-14T07:02:02.401Z,102980.36
2018-07-14T07:03:39.492Z,103091.42
2018-07-14T07:05:18.163Z,103140.14
2018-07-14T07:06:54.911Z,103150.55
2018-07-14T07:08:33.171Z,102836.47
2018-07-14T07:10:09.615Z,102570.66
2018-07-14T07:11:47.719Z,102336.22
2018-07-14T07:13:25.057Z,102036.23
2018-07-14T07:15:03.149Z,102037.53
2018-07-14T07:16:40.705Z,102256.24
2018-07-14T07:18:23.450Z,102542.69
2018-07-14T07:20:01.813Z,102706.59
2018-07-14T07:21:42.407Z,102794.86
2018-07-14T07:23:19.267Z,102877.81
2018-07-14T07:24:57.324Z,102936.45
2018-07-14T07:26:34.049Z,102930.16
2018-07-14T07:28:11.754Z,102916.23
2018-07-14T07:29:52.179Z,102758.79
2018-07-14T07:31:29.545Z,102679.00
2018-07-14T07:33:06.652Z,102677.20
2018-07-14T07:34:43.297Z,102698.04
2018-07-14T07:36:23.643Z,102591.61
2018-07-14T07:38:01.362Z,102456.14
2018-07-14T07:39:38.043Z,102453.89
2018-07-14T07:41:19.202Z,102510.63
2018-07-14T07:42:56.519Z,102647.50
2018-07-14T07:44:36.074Z,102719.06
2018-07-14T07:46:21.396Z,102686.28
2018-07-14T07:48:00.481Z,102576.30
2018-07-14T07:49:37.784Z,102603.25
2018-07-14T07:51:14.748Z,102579.37
2018-07-14T07:52:51.401Z,102448.42
2018-07-14T07:54:27.741Z,102365.63
2018-07-14T07:56:04.257Z,102285.64
2018-07-14T07:57:41.454Z,102233.47
2018-07-14T07:59:18.312Z,102257.81
2018-07-14T08:00:56.561Z,102308.05
2018-07-14T08:02:34.727Z,102386.28
2018-07-14T08:04:12.891Z,102366.52
2018-07-14T08:05:49.843Z,102384.91
2018-07-14T08:07:28.113Z,102366.52
2018-07-14T08:09:09.287Z,102252.73
2018-07-14T08:10:45.647Z,102167.91
2018-07-14T08:12:23.990Z,102128.34
2018-07-14T08:14:00.490Z,102066.81
2018-07-14T08:15:38.834Z,102124.33
2018-07-14T08:17:18.298Z,102190.38
2018-07-14T08:18:56.331Z,102191.67
2018-07-14T08:20:33.551Z,102126.58
2018-07-14T08:22:13.268Z,102135.09
2018-07-14T08:23:51.825Z,102175.92
2018-07-14T08:25:31.617Z,102264.46
2018-07-14T08:27:08.651Z,102247.75
2018-07-14T08:28:45.792Z,102347.66
2018-07-14T08:30:22.874Z,102493.35
2018-07-14T08:32:00.440Z,102432.11
2018-07-14T08:33:44.086Z,102305.73
2018-07-14T08:36:57.474Z,102245.61
2018-07-14T08:38:34.151Z,102351.58
2018-07-14T08:40:11.925Z,102401.60
2018-07-14T08:41:48.452Z,102393.03
2018-07-14T08:43:25.677Z,102381.70
2018-07-14T08:45:07.531Z,102418.22
2018-07-14T08:46:55.342Z,102448.36
2018-07-14T08:48:45.310Z,102419.11
2018-07-14T08:50:29.553Z,102415.08
2018-07-14T08:52:10.419Z,102371.84
2018-07-14T08:53:48.286Z,102131.08
2018-07-14T08:55:26.950Z,102239.33
2018-07-14T08:57:11.327Z,102279.30
2018-07-14T08:58:53.235Z,102501.55
2018-07-14T09:00:49.285Z,102600.94
2018-07-14T09:02:30.528Z,102708.52
2018-07-14T09:04:12.300Z,102786.91
2018-07-14T09:05:58.849Z,102682.05
2018-07-14T09:07:37.582Z,102536.11
2018-07-14T09:09:16.706Z,102554.55
2018-07-14T09:10:58.223Z,102597.31
2018-07-14T09:12:36.634Z,102601.34
2018-07-14T09:14:14.911Z,102583.78
2018-07-14T09:15:59.331Z,102534.27
2018-07-14T09:17:35.770Z,102456.86
2018-07-14T09:19:13.303Z,102406.00
2018-07-14T09:20:54.386Z,102381.30
2018-07-14T09:22:34.509Z,102388.94
2018-07-14T09:24:12.252Z,102449.63
2018-07-14T09:25:49.564Z,102509.98
2018-07-14T09:27:30.417Z,102527.02
2018-07-14T09:29:11.555Z,102616.20
2018-07-14T09:30:50.190Z,102686.95
2018-07-14T09:32:30.553Z,102634.63
2018-07-14T09:34:09.246Z,102607.60
2018-07-14T09:35:48.756Z,102603.98
2018-07-14T09:37:25.815Z,102408.73
2018-07-14T09:39:03.379Z,102479.77
2018-07-14T09:40:46.518Z,102432.59
2018-07-14T09:42:26.878Z,102604.08
2018-07-14T09:44:04.871Z,102645.02
2018-07-14T09:45:46.558Z,102638.25
2018-07-14T09:47:26.677Z,102651.78
2018-07-14T09:49:07.878Z,102693.65
2018-07-14T09:50:50.242Z,102745.95
2018-07-14T09:52:29.480Z,102713.03
2018-07-14T09:54:17.008Z,102596.36
2018-07-14T09:55:55.760Z,102522.08
2018-07-14T09:57:37.182Z,102428.02
2018-07-14T10:01:06.801Z,102521.66
2018-07-14T10:02:47.170Z,102608.91
2018-07-14T10:04:25.618Z,102587.75
2018-07-14T10:06:07.851Z,102502.20
2018-07-14T10:07:48.671Z,102518.05
2018-07-14T10:09:26.543Z,102640.91
2018-07-14T10:11:04.315Z,102679.64
2018-07-14T10:12:44.574Z,102754.81
2018-07-14T10:16:04.384Z,102683.20
2018-07-14T10:17:41.005Z,102585.91
2018-07-14T10:19:19.200Z,102575.12
2018-07-14T10:20:57.312Z,102615.67
2018-07-14T10:22:36.452Z,102615.67
2018-07-14T10:24:15.321Z,102597.62
2018-07-14T10:25:56.200Z,102523.81
2018-07-14T10:27:39.357Z,102459.05
2018-07-14T10:29:16.707Z,102456.73
2018-07-14T10:30:55.206Z,102409.55
2018-07-14T10:32:35.077Z,102509.85
2018-07-14T10:34:12.004Z,102598.93
2018-07-14T10:35:51.669Z,102692.22
2018-07-14T10:37:31.184Z,102735.02
2018-07-14T10:39:11.793Z,102775.09
2018-07-14T10:40:53.975Z,102766.51
2018-07-14T10:42:31.085Z,102796.77
2018-07-14T10:44:15.730Z,102954.09
2018-07-14T10:47:52.561Z,102800.39
2018-07-14T10:49:35.292Z,102525.18
2018-07-14T10:51:15.152Z,102494.08
2018-07-14T10:52:54.490Z,102369.48
2018-07-14T10:54:44.799Z,102513.88
2018-07-14T10:56:27.375Z,102698.47
2018-07-14T10:58:07.675Z,102785.42
2018-07-14T11:00:11.654Z,102796.29
2018-07-14T11:01:51.431Z,102692.12
2018-07-14T11:03:29.757Z,102583.59
2018-07-14T11:05:09.318Z,102626.36
2018-07-14T11:06:46.663Z,102647.55
2018-07-14T11:08:23.680Z,102681.77
2018-07-14T11:10:07.383Z,102722.72
2018-07-14T11:11:46.315Z,102756.05
2018-07-14T11:13:23.773Z,102766.03
2018-07-14T11:15:00.860Z,102738.98
2018-07-14T11:16:42.213Z,102770.52
2018-07-14T11:18:21.538Z,102619.13
2018-07-14T11:20:00.781Z,102761.99
2018-07-14T11:21:37.797Z,102984.73
2018-07-14T11:23:15.443Z,103098.97
2018-07-14T11:24:52.673Z,103047.05
2018-07-14T11:26:34.230Z,103062.36
2018-07-14T11:28:11.385Z,103076.39
2018-07-14T11:29:48.375Z,103120.64
2018-07-14T11:31:32.816Z,103053.31
2018-07-14T11:33:13.215Z,103002.70
2018-07-14T11:34:51.178Z,102974.73
2018-07-14T11:36:28.166Z,103001.81
2018-07-14T11:38:05.296Z,102906.66
2018-07-14T11:39:42.505Z,102833.11
2018-07-14T11:41:19.829Z,102799.28
2018-07-14T11:42:58.200Z,102783.00
2018-07-14T11:44:36.546Z,102799.69
2018-07-14T11:46:13.345Z,102865.06
2018-07-14T11:47:49.832Z,102754.20
2018-07-14T11:49:27.750Z,102849.70
2018-07-14T11:51:04.077Z,102961.13
2018-07-14T11:52:40.464Z,102917.80
2018-07-14T11:54:16.878Z,102971.05
2018-07-14T11:55:54.036Z,102978.30
2018-07-14T11:57:30.360Z,103018.02
2018-07-14T11:59:07.538Z,103223.98
2018-07-14T12:00:45.664Z,103257.73
2018-07-14T12:02:24.448Z,103331.00
2018-07-14T12:04:03.914Z,103468.04
2018-07-14T12:05:41.172Z,103585.64
2018-07-14T12:07:19.934Z,103656.75
2018-07-14T12:08:57.393Z,103592.44
2018-07-14T12:10:45.669Z,103555.79
2018-07-14T12:12:24.520Z,103544.02
2018-07-14T12:14:02.581Z,103498.35
2018-07-14T12:15:45.276Z,103442.68
2018-07-14T12:17:24.902Z,103457.55
2018-07-14T12:19:05.789Z,103393.38
2018-07-14T12:20:45.866Z,103356.70
2018-07-14T12:22:24.811Z,103180.44
2018-07-14T12:24:03.004Z,103125.37
2018-07-14T12:25:44.070Z,103169.61
2018-07-14T12:27:20.535Z,103219.78
2018-07-14T12:28:57.725Z,103279.84
2018-07-14T12:30:36.013Z,103317.72
2018-07-14T12:32:14.603Z,103343.95
2018-07-14T12:34:02.650Z,103178.17
2018-07-14T12:35:41.945Z,103212.87
2018-07-14T12:37:19.528Z,103291.48
2018-07-14T12:38:56.424Z,103304.17
2018-07-14T12:40:33.494Z,103402.25
2018-07-14T12:42:09.982Z,103413.06
2018-07-14T12:43:46.320Z,103377.34
2018-07-14T12:45:24.839Z,103388.67
2018-07-14T12:47:02.545Z,103527.00
2018-07-14T12:48:40.895Z,103541.97
2018-07-14T12:50:18.250Z,103457.76
2018-07-14T12:51:57.713Z,103398.05
2018-07-14T12:53:39.153Z,103348.75
2018-07-14T12:55:18.504Z,103294.08
2018-07-14T12:56:54.910Z,103284.10
2018-07-14T12:58:31.605Z,103222.66
2018-07-14T13:00:08.786Z,103203.13
2018-07-14T13:01:46.288Z,103167.06
2018-07-14T13:03:22.589Z,103118.28
2018-07-14T13:05:09.830Z,103249.23
2018-07-14T13:06:50.646Z,103277.73
2018-07-14T13:08:30.737Z,103362.63
2018-07-14T13:10:10.237Z,103440.84
2018-07-14T13:11:47.801Z,103394.77
2018-07-14T13:13:27.395Z,103347.20
2018-07-14T13:15:07.290Z,103341.30
2018-07-14T13:16:46.192Z,103398.25
2018-07-14T13:18:22.698Z,103390.51
2018-07-14T13:20:01.006Z,103335.40
2018-07-14T13:21:38.057Z,103299.22
2018-07-14T13:23:14.726Z,103322.72
2018-07-14T13:24:52.588Z,103377.02
2018-07-14T13:26:28.976Z,103457.91
2018-07-14T13:28:05.799Z,103409.52
2018-07-14T13:29:46.250Z,103347.02
2018-07-14T13:31:24.686Z,103250.81
2018-07-14T13:33:02.488Z,103178.89
2018-07-14T13:34:38.934Z,103157.14
2018-07-14T13:36:17.949Z,103145.93
2018-07-14T13:37:55.839Z,103199.64
2018-07-14T13:39:32.284Z,103241.22
2018-07-14T13:41:09.602Z,103298.11
2018-07-14T13:42:50.552Z,103326.58
2018-07-14T13:44:31.615Z,103284.09
2018-07-14T13:46:11.601Z,103217.64
2018-07-14T13:47:48.271Z,103322.05
2018-07-14T13:49:27.911Z,103360.03
2018-07-14T13:51:05.303Z,103359.08
2018-07-14T13:52:42.353Z,103395.66
2018-07-14T13:54:25.253Z,103443.16
2018-07-14T13:56:02.524Z,103414.58
2018-07-14T13:57:41.693Z,103407.40
2018-07-14T14:01:03.426Z,103297.45
2018-07-14T14:02:45.513Z,103178.14
2018-07-14T14:04:23.652Z,103156.86
2018-07-14T14:06:00.121Z,103202.52
2018-07-14T14:07:42.546Z,103241.84
2018-07-14T14:09:19.437Z,103199.30
2018-07-14T14:10:57.521Z,103152.75
2018-07-14T14:12:35.821Z,103274.70
2018-07-14T14:14:12.483Z,103373.66
2018-07-14T14:15:50.405Z,103437.88
2018-07-14T14:17:26.862Z,103475.88
2018-07-14T14:19:04.933Z,103503.45
2018-07-14T14:20:42.019Z,103522.91
2018-07-14T14:22:20.743Z,103494.86
2018-07-14T14:23:58.654Z,103505.23
2018-07-14T14:25:36.600Z,103517.91
2018-07-14T14:27:13.516Z,103519.25
2018-07-14T14:28:50.481Z,103513.31
2018-07-14T14:30:28.511Z,103567.73
2018-07-14T14:32:07.915Z,103490.27
2018-07-14T14:33:47.746Z,103460.73
2018-07-14T14:35:24.465Z,103417.30
2018-07-14T14:37:03.960Z,103400.53
2018-07-14T14:38:43.592Z,103447.08
2018-07-14T14:40:21.949Z,103473.39
2018-07-14T14:42:01.841Z,103472.44
2018-07-14T14:43:41.389Z,103427.10
2018-07-14T14:45:18.670Z,103414.02
2018-07-14T14:46:55.998Z,103404.48
2018-07-14T14:48:35.908Z,103427.05
2018-07-14T14:50:17.052Z,103415.75
2018-07-14T14:51:54.752Z,103390.87
2018-07-14T14:53:31.253Z,103354.67
2018-07-14T14:55:08.650Z,103313.47
2018-07-14T14:56:45.155Z,103282.33
2018-07-14T14:58:21.631Z,103292.23
2018-07-14T14:59:58.115Z,103303.56
2018-07-14T15:01:35.026Z,103313.89
2018-07-14T15:03:12.646Z,103301.23
2018-07-14T15:04:49.033Z,103307.93
2018-07-14T15:06:25.984Z,103307.03
2018-07-14T15:08:04.638Z,103299.38
2018-07-14T15:09:42.011Z,103281.22
2018-07-14T15:11:22.592Z,103259.98
2018-07-14T15:13:03.727Z,103207.97
2018-07-14T15:14:42.381Z,103118.54
2018-07-14T15:18:08.655Z,103095.83
2018-07-14T15:19:46.253Z,103055.09
2018-07-14T15:21:23.520Z,103063.25
2018-07-14T15:23:00.741Z,103114.30
2018-07-14T15:24:43.235Z,103145.84
2018-07-14T15:26:21.636Z,103142.72
2018-07-14T15:27:59.858Z,103107.93
2018-07-14T15:29:38.729Z,103053.19
2018-07-14T15:31:16.394Z,103054.56
2018-07-14T15:32:54.781Z,103169.73
2018-07-14T15:34:33.407Z,103205.45
2018-07-14T15:36:10.774Z,103258.74
2018-07-14T15:37:47.109Z,103197.70
2018-07-14T15:39:23.765Z,103190.03
2018-07-14T15:41:01.610Z,103187.22
2018-07-14T15:42:42.622Z,103222.02
2018-07-14T15:44:20.675Z,103196.69
2018-07-14T15:45:58.559Z,103108.59
2018-07-14T15:47:35.003Z,103083.27
2018-07-14T15:49:14.574Z,103109.97
2018-07-14T15:50:50.950Z,103109.91
2018-07-14T15:52:31.577Z,103118.95
2018-07-14T15:54:10.624Z,103078.14
2018-07-14T15:55:49.458Z,103035.70
2018-07-14T15:57:26.293Z,103055.95
2018-07-14T15:59:02.594Z,103126.94
2018-07-14T16:00:39.797Z,103183.84
2018-07-14T16:02:32.106Z,103205.89
2018-07-14T16:04:09.669Z,103153.98
2018-07-14T16:05:46.070Z,103061.36
2018-07-14T16:07:22.494Z,103100.15
2018-07-14T16:09:00.776Z,103125.47
2018-07-14T16:10:38.792Z,103114.20
2018-07-14T16:12:21.448Z,103172.81
2018-07-14T16:13:58.682Z,103203.98
2018-07-14T16:15:39.981Z,103207.61
2018-07-14T16:17:17.996Z,103171.86
2018-07-14T16:18:56.751Z,103166.03
2018-07-14T16:20:33.777Z,103149.33
2018-07-14T16:22:10.188Z,103003.30
2018-07-14T16:23:47.272Z,102969.53
2018-07-14T16:25:23.401Z,102912.22
2018-07-14T16:27:03.522Z,102911.67
2018-07-14T16:28:40.915Z,102940.60
2018-07-14T16:30:22.424Z,102997.83
2018-07-14T16:32:24.549Z,102989.30
2018-07-14T16:34:02.464Z,102818.23
2018-07-14T16:35:40.558Z,102897.64
2018-07-14T16:37:18.765Z,102884.49
2018-07-14T16:38:55.517Z,102972.45
2018-07-14T16:40:31.842Z,102912.46
2018-07-14T16:42:14.394Z,102914.66
2018-07-14T16:43:55.867Z,102854.61
2018-07-14T16:45:38.148Z,102832.50
2018-07-14T16:47:15.259Z,102800.03
2018-07-14T16:48:53.723Z,102766.23
2018-07-14T16:50:37.708Z,102782.95
2018-07-14T16:52:17.112Z,102816.66
2018-07-14T16:53:53.703Z,102834.22
2018-07-14T16:55:32.066Z,102863.58
2018-07-14T16:57:09.094Z,102905.89
2018-07-14T16:58:49.135Z,102907.26
2018-07-14T17:00:30.401Z,102852.22
2018-07-14T17:02:08.742Z,102796.75
2018-07-14T17:05:53.039Z,102815.60
2018-07-14T17:07:32.376Z,102816.42
2018-07-14T17:09:10.744Z,102801.09
2018-07-14T17:10:49.127Z,102789.36
2018-07-14T17:12:26.300Z,102795.24
2018-07-14T17:14:09.365Z,102745.23
2018-07-14T17:15:50.416Z,102748.75
2018-07-14T17:17:30.820Z,102707.22
2018-07-14T17:19:12.463Z,102618.50
2018-07-14T17:20:51.567Z,102597.75
2018-07-14T17:22:29.332Z,102610.88
2018-07-14T17:24:07.813Z,102645.47
2018-07-14T17:25:48.323Z,102669.78
2018-07-14T17:27:34.122Z,102704.38
2018-07-14T17:29:24.301Z,102733.22
2018-07-14T17:31:02.016Z,102718.41
2018-07-14T17:32:38.825Z,102780.56
2018-07-14T17:34:17.337Z,102698.02
2018-07-14T17:36:08.681Z,102624.13
2018-07-14T17:37:46.728Z,102579.08
2018-07-14T17:39:24.816Z,102553.42
2018-07-14T17:41:02.165Z,102542.14
2018-07-14T17:42:38.541Z,102514.59
2018-07-14T17:44:19.868Z,102522.25
2018-07-14T17:46:00.181Z,102544.80
2018-07-14T17:47:41.789Z,102524.91
2018-07-14T17:49:20.133Z,102510.12
2018-07-14T17:50:58.552Z,102552.77
2018-07-14T17:52:38.051Z,102574.42
2018-07-14T17:54:19.217Z,102655.14
2018-07-14T17:56:01.312Z,102673.91
2018-07-14T17:57:47.802Z,102656.81
2018-07-14T17:59:29.599Z,102587.45
2018-07-14T18:01:07.010Z,102556.02
2018-07-14T18:02:45.746Z,102488.80
2018-07-14T18:04:23.731Z,102453.72
2018-07-14T18:06:00.730Z,102428.11
2018-07-14T18:07:38.658Z,102448.84
2018-07-14T18:09:16.261Z,102466.28
2018-07-14T18:10:58.811Z,102445.14
2018-07-14T18:12:37.586Z,102364.67
2018-07-14T18:14:14.630Z,102352.85
2018-07-14T18:15:52.588Z,102380.27
2018-07-14T18:17:33.300Z,102408.64
2018-07-14T18:19:15.992Z,102420.39
2018-07-14T18:20:54.681Z,102437.42
2018-07-14T18:22:31.805Z,102429.77
2018-07-14T18:24:12.744Z,102436.95
2018-07-14T18:25:50.329Z,102437.83
2018-07-14T18:27:34.316Z,102427.45
2018-07-14T18:29:24.009Z,102426.16
2018-07-14T18:31:03.081Z,102377.53
2018-07-14T18:32:48.738Z,102301.11
2018-07-14T18:34:26.738Z,102241.70
2018-07-14T18:36:07.758Z,102181.57
2018-07-14T18:37:45.868Z,102263.70
2018-07-14T18:39:28.513Z,102314.99
2018-07-14T18:41:08.177Z,102350.05
2018-07-14T18:42:49.207Z,102327.14
2018-07-14T18:44:26.348Z,102310.05
2018-07-14T18:46:21.639Z,102314.99
2018-07-14T18:48:01.253Z,102354.95
2018-07-14T18:49:38.481Z,102356.70
2018-07-14T18:51:18.752Z,102308.56
2018-07-14T18:52:58.862Z,102268.24
2018-07-14T18:54:42.791Z,102250.16
2018-07-14T18:56:29.889Z,102251.03
2018-07-14T18:58:09.626Z,102206.92
2018-07-14T18:59:50.215Z,102233.50
2018-07-14T19:01:37.434Z,102233.98
2018-07-14T19:03:19.260Z,102234.39
2018-07-14T19:04:59.224Z,102270.34
2018-07-14T19:06:38.394Z,102210.62
2018-07-14T19:08:18.330Z,102202.91
2018-07-14T19:10:04.752Z,102308.97
2018-07-14T19:11:45.648Z,102398.89
2018-07-14T19:13:27.138Z,102412.89